Yuzhno-Sakhalinsk Airport
UHSS : now visible

Airfield :











YOU CAN JOIN US ON...

 
LOGIN :

Register | Disclaimer

   EN    FR    IT 

 









Legend :    VFR   Marginal VFR   IFR   Intensive IFR   Very Intensive IFR
Visi :
Ceiling :
>= 8 km
>= 3000ft
5 to 8 km
1000 to 3000 ft
1500m to 5 km
500 to 1000 ft
800 to 1500m
200 to 500 ft
< 800m
< 200 ft
Symbols :   Thunderstorms  Fog  Heavy snow  Heavy precipitations  Wind > 20 kt






- Airport Elevation : 59 ft
- IATA code : UUS


UHSS - Yuzhno-Sakhalinsk

CURRENT METAR :
  • 011500Z 01002MPS 9999 NSC M02/M02 Q1012 R01/150065 NOSIG RMK QFE758/1011

EXPIRED METARs :
  • 011400Z 36001MPS 9999 NSC M02/M03 Q1013 R01/150065 NOSIG RMK QFE758/1011
  • 011300Z 00000MPS 9999 NSC M02/M03 Q1013 R01/150065 NOSIG RMK QFE758/1011

TAF TAF UHSS
Valid from the 01 at 15:00 until the 02 at 21:00 UTC


011350Z 0115/0221 01003MPS 9999 BKN030CB



MET'MAP, your aeronautical weather chart ! - Copyright ORBIFLY December 2007 - Disclaimer

ORBIFLY MET'MAP TEAM :

Programming & Development : Alexandra Zaïnal
Concept & original design : Baudouin d'Aumeries
Assistance for programming : Marc-Olivier Méhu
Technical & hardware support : Manuel Goepfert

Contact : metmap@orbifly.com




SOURCES & CREDITS :

   NOAA       Earth
Advisory